Time;durP1;ratioP1;P1;durP2;ratioP2;P2;SDS_P1;SDS_P2;PMS_P1;PMS_P2;Temp;Humidity;BMP_temperature;BMP_pressure;BME280_temperature;BME280_humidity;BME280_pressure;Samples;Min_cycle;Max_cycle;Signal;HPM_P1;HPM_P2
2021/11/03 00:00:10;;;;;;;1.15;1.15;;;;;;;4.19;100.00;97461.78;4899723;29;20024;-70
2021/11/03 00:02:36;;;;;;;0.85;0.85;;;;;;;4.18;100.00;97462.66;4899628;29;20032;-70
2021/11/03 00:05:02;;;;;;;0.88;0.88;;;;;;;4.27;100.00;97459.97;4899667;29;20035;-70
2021/11/03 00:07:29;;;;;;;0.60;0.60;;;;;;;4.22;100.00;97461.75;4899451;29;20032;-70
2021/11/03 00:09:58;;;;;;;0.90;0.90;;;;;;;4.23;100.00;97460.03;4899036;29;20032;-70
2021/11/03 00:12:23;;;;;;;1.30;1.20;;;;;;;4.19;100.00;97461.78;4892478;29;20088;-70
2021/11/03 00:14:48;;;;;;;1.80;1.70;;;;;;;4.25;100.00;97460.84;4886629;29;20487;-70
2021/11/03 00:17:14;;;;;;;2.95;1.27;;;;;;;4.22;100.00;97459.19;4880506;29;20017;-70
2021/11/03 00:19:39;;;;;;;0.70;0.70;;;;;;;4.25;100.00;97456.56;4880546;29;20085;-70
2021/11/03 00:22:04;;;;;;;0.60;0.60;;;;;;;4.30;100.00;97459.94;4880536;29;20079;-70
2021/11/03 00:24:34;;;;;;;1.20;1.20;;;;;;;4.31;100.00;97451.38;4880404;29;20454;-70
2021/11/03 00:26:59;;;;;;;1.20;1.07;;;;;;;4.31;100.00;97450.53;4880610;29;20041;-70
2021/11/03 00:29:24;;;;;;;0.60;0.60;;;;;;;4.27;100.00;97454.84;4880143;29;20300;-70
2021/11/03 00:31:50;;;;;;;1.33;1.33;;;;;;;4.28;100.00;97451.41;4880367;29;20029;-70
2021/11/03 00:34:15;;;;;;;0.95;0.95;;;;;;;4.36;100.00;97462.41;4880426;29;20119;-70
2021/11/03 00:36:40;;;;;;;1.85;1.45;;;;;;;4.32;100.00;97465.88;4880428;29;20037;-70
2021/11/03 00:39:06;;;;;;;1.85;1.75;;;;;;;4.36;100.00;97475.22;4880119;29;20029;-70
2021/11/03 00:41:31;;;;;;;1.40;0.88;;;;;;;4.44;100.00;97467.41;4880202;29;20081;-70
2021/11/03 00:43:57;;;;;;;1.13;1.13;;;;;;;4.45;100.00;97465.69;4886911;29;20025;-70
2021/11/03 00:46:22;;;;;;;1.23;1.17;;;;;;;4.47;100.00;97461.41;4879937;29;20055;-69
2021/11/03 00:48:48;;;;;;;0.82;0.82;;;;;;;4.53;100.00;97461.28;4880111;29;20025;-71
2021/11/03 00:51:13;;;;;;;0.88;0.88;;;;;;;4.52;100.00;97455.31;4879723;29;20116;-70
2021/11/03 00:53:39;;;;;;;1.27;1.27;;;;;;;4.52;100.00;97441.66;4880049;29;20036;-70
2021/11/03 00:56:05;;;;;;;1.70;1.40;;;;;;;4.59;100.00;97441.56;4879872;29;20096;-70
2021/11/03 00:58:30;;;;;;;0.80;0.80;;;;;;;4.56;100.00;97440.75;4880054;29;20565;-70
2021/11/03 05:15:32;;;;;;;1.07;1.03;;;;;;;4.81;100.00;97241.06;5980579;23;20853;31
2021/11/03 05:17:57;;;;;;;0.63;0.63;;;;;;;4.79;100.00;97235.97;4841185;29;20015;-72
2021/11/03 05:20:23;;;;;;;1.48;0.98;;;;;;;4.81;100.00;97239.31;4842601;29;20048;-72
2021/11/03 05:22:48;;;;;;;2.20;0.98;;;;;;;4.82;100.00;97230.75;4842626;29;20077;-72
2021/11/03 05:25:17;;;;;;;1.05;1.05;;;;;;;4.87;100.00;97221.22;4842395;29;20030;-72
2021/11/03 05:27:43;;;;;;;0.57;0.57;;;;;;;4.86;100.00;97219.56;4868290;23;20055;-73
2021/11/03 05:30:09;;;;;;;1.08;0.98;;;;;;;4.87;100.00;97223.81;4879406;29;20458;-74
2021/11/03 05:32:34;;;;;;;0.60;0.60;;;;;;;4.93;100.00;97210.00;4879233;29;20112;-74
2021/11/03 05:35:00;;;;;;;2.03;0.98;;;;;;;4.94;100.00;97211.72;4879614;29;20119;-74
2021/11/03 05:37:26;;;;;;;1.05;0.80;;;;;;;4.97;100.00;97203.09;4879345;29;20033;-74
2021/11/03 05:39:52;;;;;;;0.60;0.60;;;;;;;5.08;100.00;97206.28;4879285;29;20076;-74
2021/11/03 05:42:17;;;;;;;2.03;1.23;;;;;;;5.07;100.00;97207.13;4885177;29;20024;-74
2021/11/03 05:44:43;;;;;;;1.60;0.95;;;;;;;5.20;100.00;97208.56;4890025;29;20024;-74
2021/11/03 05:47:19;;;;;;;0.80;0.80;;;;;;;5.12;100.00;97211.28;4897984;29;20024;-74
2021/11/03 05:49:44;;;;;;;0.60;0.60;;;;;;;5.12;100.00;97207.88;4897850;29;20558;-75
2021/11/03 05:52:11;;;;;;;0.90;0.90;;;;;;;5.19;100.00;97193.22;4897582;29;20073;-73
2021/11/03 05:54:37;;;;;;;1.25;1.15;;;;;;;5.22;100.00;97201.69;4897776;29;20035;-74
2021/11/03 05:57:03;;;;;;;1.02;1.02;;;;;;;5.21;100.00;97192.28;4897671;29;20514;-74
2021/11/03 05:59:29;;;;;;;1.08;1.05;;;;;;;5.19;100.00;97181.22;4897243;29;20024;-74
2021/11/03 06:01:56;;;;;;;0.82;0.82;;;;;;;5.15;100.00;97180.44;4897366;29;20525;-74
2021/11/03 06:04:21;;;;;;;0.73;0.73;;;;;;;5.15;100.00;97169.31;4897649;29;20406;-74
2021/11/03 06:06:47;;;;;;;1.08;1.08;;;;;;;5.18;100.00;97166.69;4897565;29;20032;-74
2021/11/03 06:09:14;;;;;;;1.00;1.00;;;;;;;5.15;100.00;97171.88;4896612;29;20024;-74
2021/11/03 06:11:41;;;;;;;0.73;0.73;;;;;;;5.14;100.00;97167.63;4891169;29;20032;-74
2021/11/03 06:14:07;;;;;;;1.75;0.55;;;;;;;5.17;100.00;97167.56;4889435;29;20035;-74
2021/11/03 06:16:33;;;;;;;0.52;0.52;;;;;;;5.23;100.00;97157.16;4897302;29;20028;-74
2021/11/03 06:18:58;;;;;;;1.00;1.00;;;;;;;5.19;100.00;97159.84;4897399;29;20486;-74
2021/11/03 06:21:24;;;;;;;0.57;0.57;;;;;;;5.23;100.00;97166.59;4897454;29;20111;-74
2021/11/03 06:23:50;;;;;;;0.63;0.63;;;;;;;5.26;100.00;97156.22;4897225;29;20036;-74
2021/11/03 06:26:17;;;;;;;0.70;0.70;;;;;;;5.27;100.00;97153.66;4897213;29;20025;-74
2021/11/03 06:28:43;;;;;;;0.70;0.70;;;;;;;5.32;100.00;97145.84;4896922;29;20041;-74
2021/11/03 06:31:09;;;;;;;0.95;0.95;;;;;;;5.31;100.00;97144.97;4897023;29;20387;-74
2021/11/03 06:33:34;;;;;;;0.77;0.77;;;;;;;5.28;100.00;97142.50;4896992;29;20482;-74
2021/11/03 06:36:02;;;;;;;0.88;0.88;;;;;;;5.31;100.00;97139.84;4897170;29;20021;-74
2021/11/03 06:38:27;;;;;;;1.30;1.20;;;;;;;5.34;100.00;97139.78;4897047;29;20098;-74
2021/11/03 06:40:53;;;;;;;0.90;0.90;;;;;;;5.35;100.00;97146.59;4895538;29;20479;-74
2021/11/03 06:43:19;;;;;;;1.23;1.08;;;;;;;5.39;100.00;97137.94;4885865;29;20056;-74
2021/11/03 06:45:45;;;;;;;0.70;0.70;;;;;;;5.45;100.00;97146.38;4895718;29;20024;-74
2021/11/03 06:48:10;;;;;;;0.73;0.73;;;;;;;5.50;100.00;97140.25;4896934;29;20355;-74
2021/11/03 06:50:38;;;;;;;0.98;0.98;;;;;;;5.53;100.00;97154.75;4896788;29;20033;-74
2021/11/03 06:53:06;;;;;;;0.60;0.60;;;;;;;5.62;100.00;97146.81;4896816;29;20125;-74
2021/11/03 06:55:32;;;;;;;1.13;1.10;;;;;;;5.66;100.00;97153.56;4896711;29;20033;-74
2021/11/03 06:57:57;;;;;;;1.00;1.00;;;;;;;5.76;100.00;97146.50;4896821;29;20035;-74
2021/11/03 07:00:27;;;;;;;0.75;0.75;;;;;;;5.74;100.00;97143.94;4896866;29;20025;-74
2021/11/03 07:02:53;;;;;;;0.80;0.80;;;;;;;5.75;100.00;97144.78;4896967;29;20386;-74
2021/11/03 07:05:19;;;;;;;1.90;1.70;;;;;;;5.91;100.00;97152.09;4896734;29;20036;-74
2021/11/03 07:07:44;;;;;;;1.35;1.08;;;;;;;5.95;100.00;97167.44;4896815;29;20316;-74
2021/11/03 07:10:17;;;;;;;0.70;0.70;;;;;;;5.91;100.00;97172.66;4896598;29;20029;-74
2021/11/03 07:12:42;;;;;;;1.30;1.20;;;;;;;5.93;100.00;97160.59;4888828;29;20028;-74
2021/11/03 07:15:08;;;;;;;0.85;0.85;;;;;;;5.90;100.00;97176.09;4890603;29;20123;-74
2021/11/03 07:17:33;;;;;;;1.05;1.05;;;;;;;5.95;100.00;97177.72;4896652;29;20032;-74
2021/11/03 07:19:58;;;;;;;0.95;0.95;;;;;;;5.96;100.00;97185.41;4897533;29;20489;-74
2021/11/03 07:22:24;;;;;;;0.65;0.65;;;;;;;6.04;100.00;97180.03;4900290;29;20485;-74
2021/11/03 07:24:49;;;;;;;0.50;0.50;;;;;;;6.06;100.00;97176.56;4900394;29;20039;-74
2021/11/03 07:27:14;;;;;;;0.90;0.90;;;;;;;6.05;100.00;97171.47;4900422;29;20060;-74
2021/11/03 07:29:41;;;;;;;2.30;0.85;;;;;;;6.09;100.00;97171.34;4900104;29;20115;-74
2021/11/03 07:32:08;;;;;;;1.95;1.58;;;;;;;6.14;100.00;97168.63;4900066;29;20482;-74
2021/11/03 07:34:34;;;;;;;0.80;0.80;;;;;;;6.22;99.93;97155.59;4900336;29;20036;-74
2021/11/03 07:36:59;;;;;;;0.65;0.65;;;;;;;6.31;99.47;97139.91;4900126;29;20029;-74
2021/11/03 07:39:25;;;;;;;0.85;0.82;;;;;;;6.29;99.92;97132.25;4900010;29;20031;-74
2021/11/03 07:41:51;;;;;;;1.20;1.20;;;;;;;6.33;100.00;97128.69;4893672;29;20039;-74
2021/11/03 07:44:17;;;;;;;1.27;0.82;;;;;;;6.46;98.56;97139.47;4892343;29;20046;-74
2021/11/03 07:46:43;;;;;;;0.60;0.60;;;;;;;6.65;93.80;97150.09;4900094;29;20534;-74
2021/11/03 07:49:08;;;;;;;0.70;0.70;;;;;;;6.69;95.86;97160.25;4899978;29;20032;-74
2021/11/03 07:51:34;;;;;;;0.80;0.80;;;;;;;6.78;97.42;97172.03;4899819;29;20512;-74
2021/11/03 07:53:59;;;;;;;1.30;1.30;;;;;;;6.65;98.06;97175.84;4900274;29;20029;-74
2021/11/03 07:56:27;;;;;;;0.73;0.73;;;;;;;6.69;97.91;97173.13;4900110;29;20048;-74
2021/11/03 07:58:54;;;;;;;1.17;0.80;;;;;;;6.72;97.78;97167.06;4899840;29;20117;-74
2021/11/03 08:01:20;;;;;;;0.60;0.60;;;;;;;6.92;97.70;97149.31;4899668;29;20033;-74
2021/11/03 08:03:46;;;;;;;2.47;1.08;;;;;;;6.98;96.78;97142.28;4899603;29;20076;-74
2021/11/03 08:06:12;;;;;;;0.90;0.80;;;;;;;7.18;94.15;97147.66;4899780;29;20029;-74
2021/11/03 08:08:43;;;;;;;0.40;0.40;;;;;;;7.63;90.09;97147.09;4899442;29;20040;-74
2021/11/03 08:11:11;;;;;;;0.68;0.68;;;;;;;7.79;90.22;97148.28;4895497;29;20046;-74
2021/11/03 08:13:36;;;;;;;1.45;1.35;;;;;;;7.66;91.31;97153.00;4889182;29;20115;-74
2021/11/03 08:16:05;;;;;;;1.77;1.00;;;;;;;7.78;90.97;97125.13;4899599;29;20056;-74
2021/11/03 08:18:34;;;;;;;0.50;0.50;;;;;;;7.66;86.29;97113.50;4899408;29;20028;-75
2021/11/03 08:21:00;;;;;;;0.52;0.50;;;;;;;7.69;84.70;97103.94;4899355;29;20268;-74
2021/11/03 08:23:26;;;;;;;0.57;0.57;;;;;;;7.73;81.71;97099.50;4899229;29;20032;-74
2021/11/03 08:25:51;;;;;;;0.40;0.40;;;;;;;7.82;79.92;97085.47;4899304;29;20028;-74
2021/11/03 08:28:17;;;;;;;0.30;0.30;;;;;;;7.82;81.83;97081.13;4899181;29;20080;-74
2021/11/03 08:30:46;;;;;;;3.25;1.15;;;;;;;7.63;88.36;97085.22;4899210;29;20033;-74
2021/11/03 08:33:19;;;;;;;0.77;0.77;;;;;;;7.39;91.29;97087.72;4898195;29;20031;-74
2021/11/03 08:35:47;;;;;;;1.05;1.05;;;;;;;7.32;91.76;97081.09;4899051;29;20036;-74
2021/11/03 08:38:21;;;;;;;0.50;0.50;;;;;;;7.28;92.55;97084.66;4899102;29;20545;-74
2021/11/03 08:40:48;;;;;;;1.02;1.02;;;;;;;7.20;93.84;97097.81;4898701;29;20039;-74
2021/11/03 08:43:18;;;;;;;0.80;0.80;;;;;;;7.20;93.06;97102.97;4887805;29;20028;-74
2021/11/03 08:45:44;;;;;;;3.35;1.05;;;;;;;7.21;93.04;97098.66;4896165;29;20131;-74
2021/11/03 08:48:09;;;;;;;1.55;1.08;;;;;;;7.23;93.89;97104.56;4898858;29;20542;-74
2021/11/03 08:50:38;;;;;;;1.63;1.52;;;;;;;7.15;93.89;97098.81;4897845;29;20048;-74
2021/11/03 08:53:05;;;;;;;1.20;1.08;;;;;;;7.18;93.83;97096.16;4898890;29;20040;-74
2021/11/03 08:55:31;;;;;;;0.70;0.70;;;;;;;7.13;93.90;97096.28;4899174;29;20028;-74
2021/11/03 08:57:59;;;;;;;0.90;0.90;;;;;;;7.22;94.92;97085.72;4898730;29;20494;-74
2021/11/03 09:00:29;;;;;;;0.80;0.77;;;;;;;7.95;91.53;97086.72;4897418;29;20441;-74
2021/11/03 09:02:56;;;;;;;3.85;1.73;;;;;;;8.82;86.94;97090.47;4898717;29;20036;-74
2021/11/03 09:05:24;;;;;;;1.63;1.48;;;;;;;8.58;86.72;97084.50;4898549;29;20033;-74
2021/11/03 09:07:49;;;;;;;1.67;1.10;;;;;;;8.34;88.21;97089.63;4898528;29;20028;-74
2021/11/03 09:10:17;;;;;;;0.88;0.88;;;;;;;8.10;89.17;97100.81;4898435;29;20497;-74
2021/11/03 09:12:44;;;;;;;1.95;0.77;;;;;;;8.13;89.31;97100.72;4890853;29;20028;-74
2021/11/03 09:15:11;;;;;;;0.88;0.60;;;;;;;8.01;89.66;97095.97;4892897;29;20156;-74
2021/11/03 09:17:37;;;;;;;0.80;0.80;;;;;;;7.80;90.80;97103.56;4898331;29;20024;-75
2021/11/03 09:20:04;;;;;;;1.05;1.00;;;;;;;7.86;90.86;97098.19;4898419;29;20020;-74
2021/11/03 09:22:29;;;;;;;1.23;1.08;;;;;;;7.97;90.80;97100.41;4897976;29;20486;-74
2021/11/03 09:24:55;;;;;;;0.65;0.65;;;;;;;8.11;90.36;97090.44;4898193;29;20051;-74
2021/11/03 09:27:21;;;;;;;1.05;0.70;;;;;;;8.23;89.48;97090.00;4898243;29;20024;-74
2021/11/03 09:29:49;;;;;;;0.70;0.70;;;;;;;8.50;88.00;97080.44;4897893;29;20055;-74
2021/11/03 09:32:18;;;;;;;3.22;1.40;;;;;;;8.89;85.05;97072.09;4898056;29;20374;-74
2021/11/03 09:34:48;;;;;;;0.50;0.50;;;;;;;9.03;78.63;97076.72;4897992;29;20510;-74
2021/11/03 09:37:14;;;;;;;;;;;;;;;9.33;74.37;97079.84;4898464;29;20461;-74
2021/11/03 09:39:42;;;;;;;1.00;0.68;;;;;;;9.42;78.19;97086.38;4897943;29;19916;-74
2021/11/03 09:42:11;;;;;;;0.40;0.40;;;;;;;9.30;73.91;97085.13;4891457;29;20025;-74
2021/11/03 09:44:36;;;;;;;0.68;0.68;;;;;;;9.39;73.71;97084.75;4890026;29;20116;-74
2021/11/03 09:47:14;;;;;;;0.70;0.70;;;;;;;9.62;73.03;97080.38;4897790;29;20028;-74
2021/11/03 09:49:44;;;;;;;0.50;0.50;;;;;;;9.40;70.19;97081.25;4897610;29;20036;-74
2021/11/03 09:52:24;;;;;;;0.80;0.80;;;;;;;9.40;70.90;97078.69;4897526;29;20080;-74
2021/11/03 09:54:56;;;;;;;1.27;0.90;;;;;;;9.29;68.45;97086.03;4897666;29;20025;-74
2021/11/03 09:57:38;;;;;;;0.75;0.75;;;;;;;9.30;69.07;97085.13;4897643;29;20405;-74
2021/11/03 10:00:27;;;;;;;2.20;1.13;;;;;;;9.42;68.45;97087.19;4897692;29;20023;-74
2021/11/03 10:03:25;;;;;;;0.30;0.30;;;;;;;9.34;69.01;97081.53;4897351;29;20044;-77
2021/11/03 10:06:09;;;;;;;0.57;0.57;;;;;;;9.23;68.75;97087.13;4897546;29;20364;-77
2021/11/03 10:08:38;;;;;;;0.40;0.40;;;;;;;9.35;69.66;97085.78;4897497;29;20479;-77
2021/11/03 10:11:14;;;;;;;0.40;0.40;;;;;;;9.29;68.59;97083.44;4894772;29;20055;-77
2021/11/03 10:13:40;;;;;;;0.70;0.70;;;;;;;9.48;69.59;97086.97;4887439;29;20033;-77
2021/11/03 10:16:14;;;;;;;0.55;0.55;;;;;;;9.49;68.42;97088.66;4897673;29;20127;-77
2021/11/03 10:18:52;;;;;;;0.40;0.40;;;;;;;9.53;67.90;97090.22;4897216;29;20496;-76
2021/11/03 10:21:24;;;;;;;0.38;0.38;;;;;;;9.86;68.44;97096.59;4897141;29;20043;-76
2021/11/03 10:24:11;;;;;;;0.50;0.47;;;;;;;9.94;68.35;97105.72;4897157;29;20032;-77
2021/11/03 10:26:55;;;;;;;1.10;0.50;;;;;;;10.20;68.37;97096.00;4897335;29;20059;-77
2021/11/03 10:29:32;;;;;;;0.30;0.30;;;;;;;9.98;69.97;97107.28;4896789;29;20410;-76
2021/11/03 10:31:57;;;;;;;1.77;0.80;;;;;;;10.21;71.67;97118.41;4896831;29;20024;-77
2021/11/03 10:34:35;;;;;;;0.47;0.47;;;;;;;10.59;67.71;97108.13;4896935;29;20040;-77
2021/11/03 10:37:09;;;;;;;0.50;0.47;;;;;;;10.39;69.54;97107.25;4897284;29;20395;-76
2021/11/03 10:40:16;;;;;;;0.50;0.50;;;;;;;10.40;68.66;97119.31;4896933;29;20088;-77
2021/11/03 10:42:41;;;;;;;1.67;0.65;;;;;;;10.55;69.12;97118.63;4889041;29;20027;-77
2021/11/03 10:45:33;;;;;;;0.40;0.40;;;;;;;10.36;67.42;97117.78;4890610;29;20386;-77
2021/11/03 10:48:22;;;;;;;0.70;0.70;;;;;;;10.22;71.73;97117.50;4896863;29;20483;-77
2021/11/03 10:51:11;;;;;;;0.43;0.43;;;;;;;10.24;66.87;97126.06;4896771;29;20040;-77
2021/11/03 10:53:37;;;;;;;0.50;0.50;;;;;;;10.32;66.99;97123.16;4896827;29;20546;-77
2021/11/03 10:56:14;;;;;;;1.10;0.63;;;;;;;10.29;66.48;97124.94;4896282;29;20104;-77
2021/11/03 10:58:51;;;;;;;0.63;0.63;;;;;;;10.39;67.86;97120.22;4896965;29;20457;-78
2021/11/03 11:01:22;;;;;;;0.73;0.73;;;;;;;10.34;65.11;97124.75;4896619;29;20032;-77
2021/11/03 11:03:58;;;;;;;0.40;0.40;;;;;;;10.48;65.06;97118.97;4896869;29;20063;-77
2021/11/03 11:06:30;;;;;;;0.70;0.70;;;;;;;10.22;64.89;97122.69;4896816;29;20032;-77
2021/11/03 11:09:18;;;;;;;0.73;0.55;;;;;;;10.22;64.69;97128.69;4896631;29;20067;-77
2021/11/03 11:11:45;;;;;;;0.52;0.52;;;;;;;10.23;65.03;97127.78;4890345;29;20051;-77
2021/11/03 11:14:19;;;;;;;1.45;0.40;;;;;;;10.20;67.03;97133.09;4888790;29;20021;-77
2021/11/03 11:16:48;;;;;;;0.40;0.40;;;;;;;10.39;66.48;97138.34;4896864;29;20032;-77
2021/11/03 11:19:32;;;;;;;1.30;1.20;;;;;;;10.23;70.79;97139.88;4896712;29;20031;-78
2021/11/03 11:22:31;;;;;;;0.50;0.50;;;;;;;10.53;67.53;97129.97;4896437;29;20024;-77
2021/11/03 11:25:10;;;;;;;1.58;0.52;;;;;;;10.47;66.38;97125.91;4896558;29;20035;-78
2021/11/03 11:27:38;;;;;;;0.70;0.70;;;;;;;10.55;68.26;97128.16;4896413;29;20124;-77
2021/11/03 11:30:17;;;;;;;0.88;0.88;;;;;;;10.52;68.82;97128.28;4919423;23;20056;-72
2021/11/03 11:33:03;;;;;;;6.90;1.42;;;;;;;10.39;67.78;97124.53;4877650;29;20029;-72
2021/11/03 11:35:50;;;;;;;1.45;0.90;;;;;;;10.57;65.99;97125.50;4878054;29;20033;-72
2021/11/03 11:38:37;;;;;;;2.63;1.70;;;;;;;10.65;67.86;97123.41;4877862;29;20577;-73
2021/11/03 11:41:24;;;;;;;0.57;0.57;;;;;;;10.79;66.35;97136.59;4876472;29;20049;-74
2021/11/03 11:43:52;;;;;;;0.52;0.52;;;;;;;10.74;67.07;97143.72;4887843;29;20118;-73
2021/11/03 11:46:25;;;;;;;0.35;0.35;;;;;;;10.46;68.10;97129.41;4895190;29;20549;-73
2021/11/03 11:48:55;;;;;;;0.50;0.50;;;;;;;10.54;69.95;97132.50;4895126;29;20062;-73
2021/11/03 11:51:29;;;;;;;0.40;0.40;;;;;;;10.85;65.69;97119.91;4896219;29;20025;-73
2021/11/03 11:53:58;;;;;;;0.63;0.63;;;;;;;10.92;67.49;97122.13;4896398;29;20039;-73
2021/11/03 11:56:23;;;;;;;0.40;0.40;;;;;;;11.02;68.10;97123.41;4896625;29;20025;-73
2021/11/03 11:59:04;;;;;;;0.40;0.40;;;;;;;10.97;66.69;97119.34;4896227;29;20080;-73
2021/11/03 12:01:55;;;;;;;1.38;0.93;;;;;;;10.94;67.36;97120.34;4895053;29;20056;-73
2021/11/03 12:04:30;;;;;;;0.63;0.63;;;;;;;10.99;69.20;97126.13;4896348;29;20021;-73
2021/11/03 12:06:55;;;;;;;0.75;0.75;;;;;;;11.11;69.25;97126.47;4897054;29;20513;-73
2021/11/03 12:09:42;;;;;;;1.30;0.75;;;;;;;11.15;68.64;97138.38;4899513;29;20037;-73
2021/11/03 12:12:08;;;;;;;1.05;0.90;;;;;;;11.42;68.25;97134.50;4893189;29;20076;-73
2021/11/03 12:14:36;;;;;;;2.85;0.63;;;;;;;11.49;66.76;97117.72;4891586;29;20420;-73
2021/11/03 12:17:07;;;;;;;0.50;0.50;;;;;;;11.53;63.91;97116.66;4899501;29;20037;-73
2021/11/03 12:19:44;;;;;;;0.70;0.70;;;;;;;11.03;67.66;97109.53;4899198;29;20064;-73
2021/11/03 12:22:30;;;;;;;1.05;0.68;;;;;;;11.38;65.07;97108.78;4899119;29;20033;-73
2021/11/03 12:25:16;;;;;;;0.40;0.40;;;;;;;11.14;66.36;97110.78;4888723;29;20529;-73
2021/11/03 12:27:44;;;;;;;1.30;0.85;;;;;;;10.75;67.20;97119.50;4899333;29;20490;-73
2021/11/03 12:30:14;;;;;;;1.00;0.93;;;;;;;10.74;69.17;97125.59;4898967;29;20135;-73
2021/11/03 12:32:42;;;;;;;0.70;0.70;;;;;;;11.01;69.50;97139.84;4899116;29;20040;-73
2021/11/03 12:35:20;;;;;;;0.50;0.50;;;;;;;11.25;67.39;97139.63;4899004;29;20081;-74
2021/11/03 12:37:56;;;;;;;0.50;0.50;;;;;;;11.42;67.43;97142.28;4899130;29;20036;-74
2021/11/03 12:40:27;;;;;;;2.92;0.70;;;;;;;11.44;68.95;97149.97;4898994;29;20021;-74
2021/11/03 12:43:16;;;;;;;0.75;0.75;;;;;;;11.35;69.23;97140.03;4889782;29;20028;-74
2021/11/03 12:46:02;;;;;;;2.45;0.70;;;;;;;11.56;67.09;97137.28;4896942;29;20035;-74
2021/11/03 12:48:37;;;;;;;0.70;0.70;;;;;;;11.14;69.65;97141.91;4898981;29;20029;-74
2021/11/03 12:51:17;;;;;;;0.68;0.68;;;;;;;11.03;68.24;97139.81;4897503;29;20111;-74
2021/11/03 12:53:52;;;;;;;0.90;0.90;;;;;;;10.76;70.70;97141.88;4898934;29;20124;-74
2021/11/03 12:56:25;;;;;;;0.57;0.57;;;;;;;10.92;70.30;97144.63;4898997;29;20036;-74
2021/11/03 12:58:56;;;;;;;0.98;0.95;;;;;;;10.88;70.56;97136.16;4897517;29;20393;-74
2021/11/03 13:01:30;;;;;;;1.08;1.08;;;;;;;10.61;71.66;97142.59;4898577;29;20095;-74
2021/11/03 13:03:59;;;;;;;0.90;0.90;;;;;;;10.89;70.73;97137.84;4898764;29;20040;-74
2021/11/03 13:06:33;;;;;;;0.80;0.80;;;;;;;11.00;70.91;97135.59;4897233;29;20537;-74
2021/11/03 13:08:59;;;;;;;1.00;0.80;;;;;;;10.97;71.46;97132.28;4898766;29;20028;-74
2021/11/03 13:11:33;;;;;;;0.32;0.32;;;;;;;11.00;71.20;97137.34;4892912;29;20028;-74
2021/11/03 13:14:02;;;;;;;0.63;0.57;;;;;;;10.84;71.02;97137.22;4880300;29;20029;-74
2021/11/03 13:16:34;;;;;;;0.80;0.80;;;;;;;10.74;71.79;97133.38;4879804;29;20394;-77
2021/11/03 13:19:00;;;;;;;1.20;1.10;;;;;;;10.84;72.81;97129.44;4879136;29;20569;-77
2021/11/03 13:21:32;;;;;;;0.75;0.75;;;;;;;10.69;73.08;97124.97;4879521;29;20025;-77
2021/11/03 13:24:18;;;;;;;0.73;0.73;;;;;;;10.77;74.17;97131.44;4879772;29;20111;-77
2021/11/03 13:26:44;;;;;;;7.18;2.00;;;;;;;10.62;73.89;97136.50;4879679;29;20036;-77
2021/11/03 13:29:26;;;;;;;1.35;0.90;;;;;;;10.54;74.73;97148.03;4878132;29;20036;-77
2021/11/03 13:32:15;;;;;;;0.40;0.40;;;;;;;10.28;76.88;97150.91;4879450;29;20040;-77
2021/11/03 13:35:15;;;;;;;0.70;0.70;;;;;;;10.27;78.04;97149.22;4879640;29;20036;-77
2021/11/03 13:37:41;;;;;;;0.40;0.40;;;;;;;10.28;78.76;97145.72;4876409;29;20391;-77
2021/11/03 13:40:09;;;;;;;1.10;1.00;;;;;;;10.08;78.62;97143.13;4878090;29;20164;-77
2021/11/03 13:42:42;;;;;;;0.85;0.85;;;;;;;10.12;78.63;97160.22;4885521;29;20119;-78
2021/11/03 13:45:30;;;;;;;1.05;1.05;;;;;;;10.01;79.70;97158.91;4891796;29;20100;-77
2021/11/03 13:48:13;;;;;;;0.60;0.60;;;;;;;10.04;77.94;97161.34;4897903;29;20053;-73
2021/11/03 13:50:44;;;;;;;1.42;0.90;;;;;;;9.93;80.21;97166.16;4897778;29;20035;-73
2021/11/03 13:53:09;;;;;;;0.90;0.90;;;;;;;9.97;80.28;97170.28;4897533;29;20041;-73
2021/11/03 13:55:40;;;;;;;0.88;0.82;;;;;;;9.98;79.18;97174.56;4896541;29;20048;-73
2021/11/03 13:58:22;;;;;;;0.52;0.52;;;;;;;9.89;79.77;97159.41;4897541;29;20028;-73
2021/11/03 14:01:10;;;;;;;0.40;0.40;;;;;;;9.86;80.56;97156.09;4896410;29;20402;-73
2021/11/03 14:03:47;;;;;;;0.60;0.60;;;;;;;9.76;81.06;97153.06;4896365;29;20029;-73
2021/11/03 14:06:22;;;;;;;0.50;0.50;;;;;;;9.69;82.31;97177.50;4896356;29;20029;-73
2021/11/03 14:08:49;;;;;;;0.90;0.90;;;;;;;9.59;83.86;97178.78;4896091;29;20451;-73
2021/11/03 14:11:16;;;;;;;7.63;5.35;;;;;;;9.56;85.39;97182.31;4893358;29;20028;-72
2021/11/03 14:13:41;;;;;;;0.68;0.68;;;;;;;9.56;85.16;97168.53;4887318;29;20120;-72
2021/11/03 14:16:25;;;;;;;0.63;0.63;;;;;;;9.39;86.17;97170.06;4896046;29;20111;-72
2021/11/03 14:18:53;;;;;;;1.02;1.00;;;;;;;9.25;86.41;97187.84;4897023;29;20092;-73
2021/11/03 14:21:19;;;;;;;8.52;5.72;;;;;;;9.19;88.19;97182.91;4896949;29;20095;-72
2021/11/03 14:23:45;;;;;;;0.55;0.55;;;;;;;9.22;88.11;97172.44;4897212;29;20050;-73
2021/11/03 14:26:13;;;;;;;0.70;0.70;;;;;;;9.23;89.12;97169.81;4897110;29;20498;-73
2021/11/03 14:28:39;;;;;;;1.75;1.08;;;;;;;9.27;88.19;97175.69;4896925;29;20147;-72
2021/11/03 14:31:34;;;;;;;2.65;1.10;;;;;;;9.12;89.93;97169.38;4896292;29;20108;-73
2021/11/03 14:34:02;;;;;;;0.75;0.75;;;;;;;8.96;92.49;97161.38;4896263;29;20040;-73
2021/11/03 14:36:28;;;;;;;0.55;0.55;;;;;;;8.78;94.26;97156.03;4896940;29;20036;-73
2021/11/03 14:38:54;;;;;;;0.80;0.80;;;;;;;8.91;93.47;97163.28;4896837;29;20032;-73
2021/11/03 14:41:24;;;;;;;0.57;0.57;;;;;;;8.90;93.50;97156.44;4892045;29;20134;-73
2021/11/03 14:43:51;;;;;;;0.80;0.80;;;;;;;8.72;93.65;97157.94;4888445;29;20435;-73
2021/11/03 14:46:21;;;;;;;1.52;1.13;;;;;;;8.77;93.03;97170.69;4896803;29;20072;-73
2021/11/03 14:48:47;;;;;;;1.10;1.00;;;;;;;8.70;95.11;97174.38;4896660;29;20434;-73
2021/11/03 14:51:12;;;;;;;0.95;0.95;;;;;;;8.70;94.23;97179.53;4896897;29;20029;-73
2021/11/03 14:53:38;;;;;;;0.93;0.93;;;;;;;8.58;95.27;97180.00;4896795;29;20132;-73
2021/11/03 14:56:03;;;;;;;1.02;1.02;;;;;;;8.59;94.77;97186.84;4896713;29;20107;-73
2021/11/03 14:58:29;;;;;;;1.17;0.65;;;;;;;8.55;94.93;97182.69;4896678;29;20505;-72
2021/11/03 15:00:57;;;;;;;1.10;1.10;;;;;;;8.50;95.87;97183.69;4896732;29;20474;-73
2021/11/03 15:03:34;;;;;;;3.40;1.42;;;;;;;8.52;96.57;97185.38;4895535;29;20442;-73
2021/11/03 15:06:03;;;;;;;0.65;0.65;;;;;;;8.46;94.54;97200.19;4896845;29;20056;-73
2021/11/03 15:08:32;;;;;;;0.88;0.70;;;;;;;8.38;93.27;97207.34;4895532;29;20029;-73
2021/11/03 15:11:00;;;;;;;0.77;0.77;;;;;;;8.38;93.00;97209.09;4894681;29;20043;-73
2021/11/03 15:13:27;;;;;;;0.90;0.90;;;;;;;8.44;94.11;97217.47;4885586;29;20489;-73
2021/11/03 15:15:56;;;;;;;4.93;1.50;;;;;;;8.33;98.19;97210.97;4894911;29;20044;-73
2021/11/03 15:18:25;;;;;;;1.10;1.05;;;;;;;8.23;99.02;97215.59;4896777;29;20028;-73
2021/11/03 15:20:52;;;;;;;5.18;1.20;;;;;;;8.17;98.52;97215.78;4896604;29;20046;-73
2021/11/03 15:23:24;;;;;;;3.67;1.77;;;;;;;8.22;98.32;97219.06;4896646;29;20394;-73
2021/11/03 15:25:51;;;;;;;2.00;1.45;;;;;;;8.14;99.60;97215.91;4896681;29;20044;-73
2021/11/03 15:28:17;;;;;;;2.72;1.17;;;;;;;8.21;100.00;97222.53;4896414;29;20156;-73
2021/11/03 15:30:52;;;;;;;0.82;0.82;;;;;;;8.11;100.00;97221.16;4896522;29;20032;-73
2021/11/03 15:33:21;;;;;;;0.68;0.68;;;;;;;8.02;100.00;97226.59;4896627;29;20417;-73
2021/11/03 15:35:51;;;;;;;0.80;0.80;;;;;;;7.98;100.00;97231.88;4896744;29;20401;-73
2021/11/03 15:38:26;;;;;;;1.52;1.02;;;;;;;8.01;100.00;97230.94;4896552;29;20028;-73
2021/11/03 15:40:53;;;;;;;0.85;0.82;;;;;;;8.05;100.00;97234.25;4896141;29;20115;-73
2021/11/03 15:43:22;;;;;;;0.77;0.77;;;;;;;8.01;100.00;97230.94;4895081;29;20057;-73
2021/11/03 15:45:47;;;;;;;1.30;1.20;;;;;;;8.03;100.00;97233.47;4882865;29;20028;-73
2021/11/03 15:48:20;;;;;;;1.38;1.30;;;;;;;7.95;100.00;97224.25;4881255;29;20493;-73
2021/11/03 15:50:47;;;;;;;1.17;0.85;;;;;;;7.92;100.00;97231.22;4881295;29;20025;-73
2021/11/03 15:53:16;;;;;;;1.42;1.33;;;;;;;7.84;100.00;97216.03;4881062;29;20029;-74
2021/11/03 15:55:43;;;;;;;3.70;1.17;;;;;;;7.76;100.00;97218.00;4881298;29;20025;-73
2021/11/03 15:58:09;;;;;;;1.42;1.23;;;;;;;7.73;100.00;97216.34;4855860;29;20037;-73
2021/11/03 16:00:38;;;;;;;2.35;1.50;;;;;;;7.73;100.00;97216.34;4881284;29;20383;-73
2021/11/03 16:03:27;;;;;;;1.98;1.67;;;;;;;7.74;100.00;97222.38;4880906;29;20394;-73
2021/11/03 16:05:53;;;;;;;1.20;1.20;;;;;;;7.74;100.00;97219.78;4881423;29;20115;-73